sensor_id;sensor_type;location;lat;lon;timestamp;P1;durP1;ratioP1;P2;durP2;ratioP2
10633;SDS011;5365;51.640;8.106;2022-12-18T00:01:24;56.83;;;34.40;;
10633;SDS011;5365;51.640;8.106;2022-12-18T00:03:46;68.03;;;35.60;;
10633;SDS011;5365;51.640;8.106;2022-12-18T00:06:08;60.40;;;35.07;;
10633;SDS011;5365;51.640;8.106;2022-12-18T00:08:30;56.73;;;33.63;;
10633;SDS011;5365;51.640;8.106;2022-12-18T00:10:53;57.33;;;34.53;;
10633;SDS011;5365;51.640;8.106;2022-12-18T00:13:15;59.80;;;34.87;;
10633;SDS011;5365;51.640;8.106;2022-12-18T00:15:36;55.97;;;34.23;;
10633;SDS011;5365;51.640;8.106;2022-12-18T00:17:59;57.63;;;33.43;;
10633;SDS011;5365;51.640;8.106;2022-12-18T00:20:21;62.70;;;33.90;;
10633;SDS011;5365;51.640;8.106;2022-12-18T00:22:46;56.57;;;32.93;;
10633;SDS011;5365;51.640;8.106;2022-12-18T00:25:08;58.23;;;34.00;;
10633;SDS011;5365;51.640;8.106;2022-12-18T00:27:30;57.63;;;33.37;;
10633;SDS011;5365;51.640;8.106;2022-12-18T00:29:51;54.73;;;32.77;;
10633;SDS011;5365;51.640;8.106;2022-12-18T00:32:13;53.60;;;31.27;;
10633;SDS011;5365;51.640;8.106;2022-12-18T00:34:35;51.37;;;32.77;;
10633;SDS011;5365;51.640;8.106;2022-12-18T00:36:57;49.80;;;31.13;;
10633;SDS011;5365;51.640;8.106;2022-12-18T00:39:18;50.57;;;30.50;;
10633;SDS011;5365;51.640;8.106;2022-12-18T00:41:40;53.83;;;32.10;;
10633;SDS011;5365;51.640;8.106;2022-12-18T00:44:20;50.17;;;30.63;;
10633;SDS011;5365;51.640;8.106;2022-12-18T00:46:42;51.43;;;31.83;;
10633;SDS011;5365;51.640;8.106;2022-12-18T00:49:05;49.00;;;30.13;;
10633;SDS011;5365;51.640;8.106;2022-12-18T00:51:26;52.10;;;30.77;;
10633;SDS011;5365;51.640;8.106;2022-12-18T00:53:48;53.60;;;33.00;;
10633;SDS011;5365;51.640;8.106;2022-12-18T00:56:10;51.87;;;30.87;;
10633;SDS011;5365;51.640;8.106;2022-12-18T00:58:36;51.07;;;30.50;;
10633;SDS011;5365;51.640;8.106;2022-12-18T01:00:58;52.80;;;31.70;;
10633;SDS011;5365;51.640;8.106;2022-12-18T01:03:20;50.97;;;30.60;;
10633;SDS011;5365;51.640;8.106;2022-12-18T01:05:42;58.50;;;32.53;;
10633;SDS011;5365;51.640;8.106;2022-12-18T01:08:05;56.97;;;33.43;;
10633;SDS011;5365;51.640;8.106;2022-12-18T01:10:26;51.50;;;31.47;;
10633;SDS011;5365;51.640;8.106;2022-12-18T01:12:51;53.60;;;30.67;;
10633;SDS011;5365;51.640;8.106;2022-12-18T01:15:13;48.10;;;29.90;;
10633;SDS011;5365;51.640;8.106;2022-12-18T01:17:36;51.13;;;30.73;;
10633;SDS011;5365;51.640;8.106;2022-12-18T01:19:58;48.83;;;29.47;;
10633;SDS011;5365;51.640;8.106;2022-12-18T01:22:20;50.33;;;31.03;;
10633;SDS011;5365;51.640;8.106;2022-12-18T01:24:42;54.17;;;31.33;;
10633;SDS011;5365;51.640;8.106;2022-12-18T01:27:03;49.70;;;31.33;;
10633;SDS011;5365;51.640;8.106;2022-12-18T01:29:25;51.07;;;31.83;;
10633;SDS011;5365;51.640;8.106;2022-12-18T01:31:48;55.73;;;32.47;;
10633;SDS011;5365;51.640;8.106;2022-12-18T01:34:10;49.47;;;32.23;;
10633;SDS011;5365;51.640;8.106;2022-12-18T01:36:32;53.40;;;31.43;;
10633;SDS011;5365;51.640;8.106;2022-12-18T01:38:56;53.53;;;30.47;;
10633;SDS011;5365;51.640;8.106;2022-12-18T01:41:21;52.93;;;32.23;;
10633;SDS011;5365;51.640;8.106;2022-12-18T01:43:57;59.90;;;32.93;;
10633;SDS011;5365;51.640;8.106;2022-12-18T01:46:20;55.33;;;33.03;;
10633;SDS011;5365;51.640;8.106;2022-12-18T01:48:51;54.47;;;32.77;;
10633;SDS011;5365;51.640;8.106;2022-12-18T01:51:15;51.47;;;31.83;;
10633;SDS011;5365;51.640;8.106;2022-12-18T01:53:37;54.67;;;31.40;;
10633;SDS011;5365;51.640;8.106;2022-12-18T01:56:00;51.60;;;31.17;;
10633;SDS011;5365;51.640;8.106;2022-12-18T01:58:24;50.27;;;29.47;;
10633;SDS011;5365;51.640;8.106;2022-12-18T02:00:51;54.90;;;32.73;;
10633;SDS011;5365;51.640;8.106;2022-12-18T02:03:13;50.60;;;31.47;;
10633;SDS011;5365;51.640;8.106;2022-12-18T02:08:23;55.93;;;32.70;;
10633;SDS011;5365;51.640;8.106;2022-12-18T02:13:35;48.20;;;28.80;;
10633;SDS011;5365;51.640;8.106;2022-12-18T02:16:03;47.77;;;28.93;;
10633;SDS011;5365;51.640;8.106;2022-12-18T02:18:35;52.90;;;29.83;;
10633;SDS011;5365;51.640;8.106;2022-12-18T02:23:35;52.97;;;29.70;;
10633;SDS011;5365;51.640;8.106;2022-12-18T02:26:22;49.63;;;29.23;;
10633;SDS011;5365;51.640;8.106;2022-12-18T02:28:57;47.77;;;29.43;;
10633;SDS011;5365;51.640;8.106;2022-12-18T02:31:24;47.93;;;29.47;;
10633;SDS011;5365;51.640;8.106;2022-12-18T02:33:47;50.73;;;29.70;;
10633;SDS011;5365;51.640;8.106;2022-12-18T02:36:09;50.93;;;28.73;;
10633;SDS011;5365;51.640;8.106;2022-12-18T02:38:32;47.17;;;28.73;;
10633;SDS011;5365;51.640;8.106;2022-12-18T02:41:02;56.37;;;30.50;;
10633;SDS011;5365;51.640;8.106;2022-12-18T02:43:25;43.23;;;27.57;;
10633;SDS011;5365;51.640;8.106;2022-12-18T02:45:56;43.73;;;28.43;;
10633;SDS011;5365;51.640;8.106;2022-12-18T02:48:23;47.23;;;27.67;;
10633;SDS011;5365;51.640;8.106;2022-12-18T02:53:50;45.73;;;28.73;;
10633;SDS011;5365;51.640;8.106;2022-12-18T02:56:18;48.50;;;28.33;;
10633;SDS011;5365;51.640;8.106;2022-12-18T02:58:47;48.47;;;28.23;;
10633;SDS011;5365;51.640;8.106;2022-12-18T03:01:40;44.77;;;27.53;;
10633;SDS011;5365;51.640;8.106;2022-12-18T03:04:11;43.47;;;27.93;;
10633;SDS011;5365;51.640;8.106;2022-12-18T03:06:46;49.40;;;29.53;;
10633;SDS011;5365;51.640;8.106;2022-12-18T03:09:12;46.53;;;28.17;;
10633;SDS011;5365;51.640;8.106;2022-12-18T03:11:38;44.43;;;27.83;;
10633;SDS011;5365;51.640;8.106;2022-12-18T03:14:20;46.80;;;26.77;;
10633;SDS011;5365;51.640;8.106;2022-12-18T03:16:44;43.53;;;25.63;;
10633;SDS011;5365;51.640;8.106;2022-12-18T03:19:08;45.80;;;26.67;;
10633;SDS011;5365;51.640;8.106;2022-12-18T03:21:42;46.20;;;26.80;;
10633;SDS011;5365;51.640;8.106;2022-12-18T03:24:09;44.47;;;27.57;;
10633;SDS011;5365;51.640;8.106;2022-12-18T03:26:32;44.87;;;27.17;;
10633;SDS011;5365;51.640;8.106;2022-12-18T03:28:59;45.37;;;27.33;;
10633;SDS011;5365;51.640;8.106;2022-12-18T03:31:25;46.67;;;27.57;;
10633;SDS011;5365;51.640;8.106;2022-12-18T03:33:56;45.83;;;27.37;;
10633;SDS011;5365;51.640;8.106;2022-12-18T03:36:28;46.83;;;27.67;;
10633;SDS011;5365;51.640;8.106;2022-12-18T03:38:50;51.27;;;27.70;;
10633;SDS011;5365;51.640;8.106;2022-12-18T03:46:48;44.67;;;26.90;;
10633;SDS011;5365;51.640;8.106;2022-12-18T03:49:17;39.77;;;25.40;;
10633;SDS011;5365;51.640;8.106;2022-12-18T03:51:54;45.00;;;26.67;;
10633;SDS011;5365;51.640;8.106;2022-12-18T03:54:22;43.10;;;26.33;;
10633;SDS011;5365;51.640;8.106;2022-12-18T03:56:53;42.67;;;26.13;;
10633;SDS011;5365;51.640;8.106;2022-12-18T03:59:18;42.87;;;26.07;;
10633;SDS011;5365;51.640;8.106;2022-12-18T04:01:43;40.73;;;26.03;;
10633;SDS011;5365;51.640;8.106;2022-12-18T04:04:09;40.87;;;24.87;;
10633;SDS011;5365;51.640;8.106;2022-12-18T04:06:33;41.27;;;24.63;;
10633;SDS011;5365;51.640;8.106;2022-12-18T04:08:56;40.57;;;24.70;;
10633;SDS011;5365;51.640;8.106;2022-12-18T04:11:19;43.37;;;24.97;;
10633;SDS011;5365;51.640;8.106;2022-12-18T04:13:42;41.00;;;24.13;;
10633;SDS011;5365;51.640;8.106;2022-12-18T04:16:11;39.30;;;23.83;;
10633;SDS011;5365;51.640;8.106;2022-12-18T04:18:36;37.30;;;23.20;;
10633;SDS011;5365;51.640;8.106;2022-12-18T04:20:58;39.57;;;23.20;;
10633;SDS011;5365;51.640;8.106;2022-12-18T04:23:20;43.37;;;23.67;;
10633;SDS011;5365;51.640;8.106;2022-12-18T04:25:42;39.33;;;23.87;;
10633;SDS011;5365;51.640;8.106;2022-12-18T04:28:09;36.93;;;23.57;;
10633;SDS011;5365;51.640;8.106;2022-12-18T04:30:32;39.43;;;23.87;;
10633;SDS011;5365;51.640;8.106;2022-12-18T04:32:54;38.77;;;24.27;;
10633;SDS011;5365;51.640;8.106;2022-12-18T04:35:16;40.17;;;23.33;;
10633;SDS011;5365;51.640;8.106;2022-12-18T04:37:39;40.87;;;22.93;;
10633;SDS011;5365;51.640;8.106;2022-12-18T04:40:01;38.93;;;23.43;;
10633;SDS011;5365;51.640;8.106;2022-12-18T04:42:31;35.17;;;21.93;;
10633;SDS011;5365;51.640;8.106;2022-12-18T04:44:53;30.50;;;19.03;;
10633;SDS011;5365;51.640;8.106;2022-12-18T04:47:15;39.63;;;23.40;;
10633;SDS011;5365;51.640;8.106;2022-12-18T04:49:36;34.60;;;22.23;;
10633;SDS011;5365;51.640;8.106;2022-12-18T04:51:58;39.10;;;23.83;;
10633;SDS011;5365;51.640;8.106;2022-12-18T04:54:20;38.97;;;23.63;;
10633;SDS011;5365;51.640;8.106;2022-12-18T04:56:41;36.13;;;22.43;;
10633;SDS011;5365;51.640;8.106;2022-12-18T04:59:03;40.10;;;24.30;;
10633;SDS011;5365;51.640;8.106;2022-12-18T05:01:25;36.80;;;22.83;;
10633;SDS011;5365;51.640;8.106;2022-12-18T05:03:50;39.87;;;23.80;;
10633;SDS011;5365;51.640;8.106;2022-12-18T05:06:12;37.43;;;22.57;;
10633;SDS011;5365;51.640;8.106;2022-12-18T05:08:34;37.70;;;23.47;;
10633;SDS011;5365;51.640;8.106;2022-12-18T05:13:29;39.87;;;22.63;;
10633;SDS011;5365;51.640;8.106;2022-12-18T05:15:52;34.70;;;21.70;;
10633;SDS011;5365;51.640;8.106;2022-12-18T05:18:14;33.93;;;21.47;;
10633;SDS011;5365;51.640;8.106;2022-12-18T05:20:36;33.30;;;21.27;;
10633;SDS011;5365;51.640;8.106;2022-12-18T05:22:58;37.93;;;22.53;;
10633;SDS011;5365;51.640;8.106;2022-12-18T05:25:19;39.13;;;22.60;;
10633;SDS011;5365;51.640;8.106;2022-12-18T05:27:42;34.33;;;21.77;;
10633;SDS011;5365;51.640;8.106;2022-12-18T05:30:04;32.43;;;20.73;;
10633;SDS011;5365;51.640;8.106;2022-12-18T05:32:26;36.50;;;23.30;;
10633;SDS011;5365;51.640;8.106;2022-12-18T05:34:47;33.83;;;22.13;;
10633;SDS011;5365;51.640;8.106;2022-12-18T05:37:09;34.23;;;21.50;;
10633;SDS011;5365;51.640;8.106;2022-12-18T05:39:31;33.60;;;21.80;;
10633;SDS011;5365;51.640;8.106;2022-12-18T05:41:52;33.83;;;20.80;;
10633;SDS011;5365;51.640;8.106;2022-12-18T05:44:14;31.50;;;21.60;;
10633;SDS011;5365;51.640;8.106;2022-12-18T05:46:36;31.00;;;21.10;;
10633;SDS011;5365;51.640;8.106;2022-12-18T05:49:01;34.90;;;22.40;;
10633;SDS011;5365;51.640;8.106;2022-12-18T05:51:22;33.30;;;21.37;;
10633;SDS011;5365;51.640;8.106;2022-12-18T05:53:44;33.57;;;21.87;;
10633;SDS011;5365;51.640;8.106;2022-12-18T05:56:10;32.93;;;20.23;;
10633;SDS011;5365;51.640;8.106;2022-12-18T05:58:36;28.90;;;19.47;;
10633;SDS011;5365;51.640;8.106;2022-12-18T06:01:05;32.00;;;18.57;;
10633;SDS011;5365;51.640;8.106;2022-12-18T06:03:31;30.10;;;20.13;;
10633;SDS011;5365;51.640;8.106;2022-12-18T06:05:54;35.07;;;20.63;;
10633;SDS011;5365;51.640;8.106;2022-12-18T06:08:16;33.10;;;20.13;;
10633;SDS011;5365;51.640;8.106;2022-12-18T06:10:37;31.20;;;20.90;;
10633;SDS011;5365;51.640;8.106;2022-12-18T06:12:59;30.47;;;19.03;;
10633;SDS011;5365;51.640;8.106;2022-12-18T06:15:21;30.97;;;19.20;;
10633;SDS011;5365;51.640;8.106;2022-12-18T06:17:43;29.73;;;19.63;;
10633;SDS011;5365;51.640;8.106;2022-12-18T06:20:05;31.23;;;19.20;;
10633;SDS011;5365;51.640;8.106;2022-12-18T06:22:29;30.17;;;18.40;;
10633;SDS011;5365;51.640;8.106;2022-12-18T06:24:52;32.63;;;19.67;;
10633;SDS011;5365;51.640;8.106;2022-12-18T06:27:14;29.37;;;18.57;;
10633;SDS011;5365;51.640;8.106;2022-12-18T06:29:36;33.30;;;18.57;;
10633;SDS011;5365;51.640;8.106;2022-12-18T06:31:57;30.97;;;19.07;;
10633;SDS011;5365;51.640;8.106;2022-12-18T06:34:19;28.77;;;18.03;;
10633;SDS011;5365;51.640;8.106;2022-12-18T06:36:41;26.87;;;17.87;;
10633;SDS011;5365;51.640;8.106;2022-12-18T06:39:02;31.20;;;18.93;;
10633;SDS011;5365;51.640;8.106;2022-12-18T06:41:24;30.70;;;17.77;;
10633;SDS011;5365;51.640;8.106;2022-12-18T06:43:46;27.57;;;16.93;;
10633;SDS011;5365;51.640;8.106;2022-12-18T06:46:08;27.07;;;18.00;;
10633;SDS011;5365;51.640;8.106;2022-12-18T06:48:30;28.47;;;18.27;;
10633;SDS011;5365;51.640;8.106;2022-12-18T06:50:52;26.53;;;16.33;;
10633;SDS011;5365;51.640;8.106;2022-12-18T06:53:14;26.77;;;15.93;;
10633;SDS011;5365;51.640;8.106;2022-12-18T06:55:36;23.43;;;17.00;;
10633;SDS011;5365;51.640;8.106;2022-12-18T06:57:57;23.90;;;15.73;;
10633;SDS011;5365;51.640;8.106;2022-12-18T07:00:19;26.73;;;16.90;;
10633;SDS011;5365;51.640;8.106;2022-12-18T07:02:41;23.53;;;15.43;;
10633;SDS011;5365;51.640;8.106;2022-12-18T07:05:03;26.07;;;15.67;;
10633;SDS011;5365;51.640;8.106;2022-12-18T07:07:27;28.33;;;16.27;;
10633;SDS011;5365;51.640;8.106;2022-12-18T07:09:49;26.57;;;15.67;;
10633;SDS011;5365;51.640;8.106;2022-12-18T07:12:11;25.07;;;15.63;;
10633;SDS011;5365;51.640;8.106;2022-12-18T07:14:34;28.50;;;16.37;;
10633;SDS011;5365;51.640;8.106;2022-12-18T07:16:56;22.50;;;15.43;;
10633;SDS011;5365;51.640;8.106;2022-12-18T07:19:17;24.67;;;15.67;;
10633;SDS011;5365;51.640;8.106;2022-12-18T07:21:39;30.37;;;17.67;;
10633;SDS011;5365;51.640;8.106;2022-12-18T07:24:01;23.13;;;15.10;;
10633;SDS011;5365;51.640;8.106;2022-12-18T07:26:22;23.30;;;15.10;;
10633;SDS011;5365;51.640;8.106;2022-12-18T07:28:45;22.73;;;15.27;;
10633;SDS011;5365;51.640;8.106;2022-12-18T07:31:11;25.17;;;15.20;;
10633;SDS011;5365;51.640;8.106;2022-12-18T07:33:34;25.13;;;15.40;;
10633;SDS011;5365;51.640;8.106;2022-12-18T07:35:58;26.00;;;16.60;;
10633;SDS011;5365;51.640;8.106;2022-12-18T07:38:21;27.27;;;16.23;;
10633;SDS011;5365;51.640;8.106;2022-12-18T07:40:43;27.73;;;15.50;;
10633;SDS011;5365;51.640;8.106;2022-12-18T07:43:05;26.93;;;15.97;;
10633;SDS011;5365;51.640;8.106;2022-12-18T07:45:27;27.63;;;15.30;;
10633;SDS011;5365;51.640;8.106;2022-12-18T07:47:49;27.47;;;16.23;;
10633;SDS011;5365;51.640;8.106;2022-12-18T07:50:10;24.17;;;15.53;;
10633;SDS011;5365;51.640;8.106;2022-12-18T07:52:32;26.93;;;16.47;;
10633;SDS011;5365;51.640;8.106;2022-12-18T07:54:54;26.50;;;15.97;;
10633;SDS011;5365;51.640;8.106;2022-12-18T07:57:16;23.77;;;15.80;;
10633;SDS011;5365;51.640;8.106;2022-12-18T07:59:54;26.27;;;16.20;;
10633;SDS011;5365;51.640;8.106;2022-12-18T08:02:16;27.13;;;16.33;;
10633;SDS011;5365;51.640;8.106;2022-12-18T08:04:37;24.47;;;14.03;;
10633;SDS011;5365;51.640;8.106;2022-12-18T08:06:59;24.10;;;14.57;;
10633;SDS011;5365;51.640;8.106;2022-12-18T08:09:21;25.77;;;16.67;;
10633;SDS011;5365;51.640;8.106;2022-12-18T08:11:42;25.37;;;16.07;;
10633;SDS011;5365;51.640;8.106;2022-12-18T08:14:04;26.40;;;15.47;;
10633;SDS011;5365;51.640;8.106;2022-12-18T08:16:26;21.80;;;15.20;;
10633;SDS011;5365;51.640;8.106;2022-12-18T08:18:48;26.17;;;15.30;;
10633;SDS011;5365;51.640;8.106;2022-12-18T08:21:10;23.93;;;15.80;;
10633;SDS011;5365;51.640;8.106;2022-12-18T08:23:33;24.17;;;15.10;;
10633;SDS011;5365;51.640;8.106;2022-12-18T08:25:57;23.20;;;14.43;;
10633;SDS011;5365;51.640;8.106;2022-12-18T08:28:19;19.50;;;13.37;;
10633;SDS011;5365;51.640;8.106;2022-12-18T08:30:41;20.93;;;11.97;;
10633;SDS011;5365;51.640;8.106;2022-12-18T08:33:11;19.34;;;12.40;;
10633;SDS011;5365;51.640;8.106;2022-12-18T08:35:36;15.17;;;10.30;;
10633;SDS011;5365;51.640;8.106;2022-12-18T08:38:00;20.27;;;11.00;;
10633;SDS011;5365;51.640;8.106;2022-12-18T08:40:22;16.50;;;10.23;;
10633;SDS011;5365;51.640;8.106;2022-12-18T08:42:43;17.77;;;10.93;;
10633;SDS011;5365;51.640;8.106;2022-12-18T08:45:24;16.00;;;10.40;;
10633;SDS011;5365;51.640;8.106;2022-12-18T08:47:46;20.67;;;11.00;;
10633;SDS011;5365;51.640;8.106;2022-12-18T08:50:09;17.50;;;9.87;;
10633;SDS011;5365;51.640;8.106;2022-12-18T08:52:31;14.87;;;9.43;;
10633;SDS011;5365;51.640;8.106;2022-12-18T08:54:53;13.27;;;8.30;;
10633;SDS011;5365;51.640;8.106;2022-12-18T08:57:15;14.27;;;8.50;;
10633;SDS011;5365;51.640;8.106;2022-12-18T08:59:37;15.70;;;8.60;;
10633;SDS011;5365;51.640;8.106;2022-12-18T09:01:59;12.50;;;8.93;;
10633;SDS011;5365;51.640;8.106;2022-12-18T09:04:21;14.43;;;8.53;;
10633;SDS011;5365;51.640;8.106;2022-12-18T09:06:43;15.83;;;9.37;;
10633;SDS011;5365;51.640;8.106;2022-12-18T09:09:05;17.07;;;10.33;;
10633;SDS011;5365;51.640;8.106;2022-12-18T09:11:27;18.17;;;10.47;;
10633;SDS011;5365;51.640;8.106;2022-12-18T09:13:49;17.33;;;10.67;;
10633;SDS011;5365;51.640;8.106;2022-12-18T09:16:12;19.37;;;10.43;;
10633;SDS011;5365;51.640;8.106;2022-12-18T09:18:33;17.90;;;11.30;;
10633;SDS011;5365;51.640;8.106;2022-12-18T09:20:55;20.83;;;11.57;;
10633;SDS011;5365;51.640;8.106;2022-12-18T09:23:17;22.73;;;12.67;;
10633;SDS011;5365;51.640;8.106;2022-12-18T09:25:39;22.53;;;11.77;;
10633;SDS011;5365;51.640;8.106;2022-12-18T09:28:11;23.27;;;13.07;;
10633;SDS011;5365;51.640;8.106;2022-12-18T09:30:38;20.67;;;12.53;;
10633;SDS011;5365;51.640;8.106;2022-12-18T09:33:01;24.07;;;12.90;;
10633;SDS011;5365;51.640;8.106;2022-12-18T09:35:22;20.00;;;11.37;;
10633;SDS011;5365;51.640;8.106;2022-12-18T09:37:44;20.27;;;12.17;;
10633;SDS011;5365;51.640;8.106;2022-12-18T09:40:06;20.17;;;13.63;;
10633;SDS011;5365;51.640;8.106;2022-12-18T09:42:33;16.50;;;10.60;;
10633;SDS011;5365;51.640;8.106;2022-12-18T09:44:55;17.20;;;10.37;;
10633;SDS011;5365;51.640;8.106;2022-12-18T09:47:22;18.83;;;10.67;;
10633;SDS011;5365;51.640;8.106;2022-12-18T09:50:04;17.77;;;9.60;;
10633;SDS011;5365;51.640;8.106;2022-12-18T09:52:31;14.40;;;8.20;;
10633;SDS011;5365;51.640;8.106;2022-12-18T09:55:04;16.77;;;9.87;;
10633;SDS011;5365;51.640;8.106;2022-12-18T09:57:30;15.30;;;9.77;;
10633;SDS011;5365;51.640;8.106;2022-12-18T10:00:06;17.77;;;10.60;;
10633;SDS011;5365;51.640;8.106;2022-12-18T10:02:39;15.70;;;10.67;;
10633;SDS011;5365;51.640;8.106;2022-12-18T10:05:14;15.87;;;10.10;;
10633;SDS011;5365;51.640;8.106;2022-12-18T10:21:45;17.53;;;9.97;;
10633;SDS011;5365;51.640;8.106;2022-12-18T10:24:14;14.27;;;9.37;;
10633;SDS011;5365;51.640;8.106;2022-12-18T10:26:41;15.33;;;9.23;;
10633;SDS011;5365;51.640;8.106;2022-12-18T10:29:07;13.60;;;8.73;;
10633;SDS011;5365;51.640;8.106;2022-12-18T10:31:31;14.00;;;8.10;;
10633;SDS011;5365;51.640;8.106;2022-12-18T10:33:53;10.97;;;8.40;;
10633;SDS011;5365;51.640;8.106;2022-12-18T10:36:15;10.00;;;7.20;;
10633;SDS011;5365;51.640;8.106;2022-12-18T10:38:38;11.00;;;7.40;;
10633;SDS011;5365;51.640;8.106;2022-12-18T10:43:42;10.20;;;7.10;;
10633;SDS011;5365;51.640;8.106;2022-12-18T10:48:28;11.63;;;6.90;;
10633;SDS011;5365;51.640;8.106;2022-12-18T10:50:51;9.97;;;6.33;;
10633;SDS011;5365;51.640;8.106;2022-12-18T10:53:33;11.87;;;6.90;;
10633;SDS011;5365;51.640;8.106;2022-12-18T10:55:58;10.67;;;6.27;;
10633;SDS011;5365;51.640;8.106;2022-12-18T11:03:31;10.50;;;6.40;;
10633;SDS011;5365;51.640;8.106;2022-12-18T11:08:30;9.97;;;6.50;;
10633;SDS011;5365;51.640;8.106;2022-12-18T11:10:51;11.20;;;6.17;;
10633;SDS011;5365;51.640;8.106;2022-12-18T11:13:23;7.27;;;5.83;;
10633;SDS011;5365;51.640;8.106;2022-12-18T11:15:47;8.43;;;6.07;;
10633;SDS011;5365;51.640;8.106;2022-12-18T11:21:07;8.63;;;6.27;;
10633;SDS011;5365;51.640;8.106;2022-12-18T11:23:30;8.47;;;6.50;;
10633;SDS011;5365;51.640;8.106;2022-12-18T11:26:02;8.43;;;6.17;;
10633;SDS011;5365;51.640;8.106;2022-12-18T11:28:26;8.60;;;6.00;;
10633;SDS011;5365;51.640;8.106;2022-12-18T11:30:51;7.53;;;6.27;;
10633;SDS011;5365;51.640;8.106;2022-12-18T11:33:31;10.33;;;6.47;;
10633;SDS011;5365;51.640;8.106;2022-12-18T11:35:57;10.37;;;6.23;;
10633;SDS011;5365;51.640;8.106;2022-12-18T11:38:28;7.83;;;5.97;;
10633;SDS011;5365;51.640;8.106;2022-12-18T11:40:57;8.13;;;5.83;;
10633;SDS011;5365;51.640;8.106;2022-12-18T11:45:55;9.17;;;6.20;;
10633;SDS011;5365;51.640;8.106;2022-12-18T11:48:22;10.10;;;5.83;;
10633;SDS011;5365;51.640;8.106;2022-12-18T11:50:49;8.60;;;6.33;;
10633;SDS011;5365;51.640;8.106;2022-12-18T11:53:12;9.07;;;6.10;;
10633;SDS011;5365;51.640;8.106;2022-12-18T12:00:30;10.23;;;6.33;;
10633;SDS011;5365;51.640;8.106;2022-12-18T12:10:57;10.30;;;6.70;;
10633;SDS011;5365;51.640;8.106;2022-12-18T12:13:45;10.37;;;6.40;;
10633;SDS011;5365;51.640;8.106;2022-12-18T12:16:17;9.80;;;6.17;;
10633;SDS011;5365;51.640;8.106;2022-12-18T12:21:27;7.87;;;6.10;;
10633;SDS011;5365;51.640;8.106;2022-12-18T12:24:04;9.07;;;6.43;;
10633;SDS011;5365;51.640;8.106;2022-12-18T12:32:13;7.97;;;6.40;;
10633;SDS011;5365;51.640;8.106;2022-12-18T12:34:36;8.73;;;6.07;;
10633;SDS011;5365;51.640;8.106;2022-12-18T12:37:25;9.67;;;5.90;;
10633;SDS011;5365;51.640;8.106;2022-12-18T12:39:56;10.50;;;6.20;;
10633;SDS011;5365;51.640;8.106;2022-12-18T12:45:23;8.47;;;6.00;;
10633;SDS011;5365;51.640;8.106;2022-12-18T12:47:49;7.23;;;5.57;;
10633;SDS011;5365;51.640;8.106;2022-12-18T12:50:13;8.60;;;5.93;;
10633;SDS011;5365;51.640;8.106;2022-12-18T12:52:40;8.50;;;6.30;;
10633;SDS011;5365;51.640;8.106;2022-12-18T12:55:05;9.97;;;6.20;;
10633;SDS011;5365;51.640;8.106;2022-12-18T12:57:36;10.20;;;6.20;;
10633;SDS011;5365;51.640;8.106;2022-12-18T13:00:02;9.07;;;6.50;;
10633;SDS011;5365;51.640;8.106;2022-12-18T13:05:24;11.10;;;6.93;;
10633;SDS011;5365;51.640;8.106;2022-12-18T13:07:54;12.40;;;7.83;;
10633;SDS011;5365;51.640;8.106;2022-12-18T13:15:22;14.63;;;7.87;;
10633;SDS011;5365;51.640;8.106;2022-12-18T13:17:46;11.80;;;8.43;;
10633;SDS011;5365;51.640;8.106;2022-12-18T13:20:09;10.40;;;7.60;;
10633;SDS011;5365;51.640;8.106;2022-12-18T13:24:59;14.03;;;7.50;;
10633;SDS011;5365;51.640;8.106;2022-12-18T13:27:45;12.67;;;7.17;;
10633;SDS011;5365;51.640;8.106;2022-12-18T13:35:40;11.00;;;6.80;;
10633;SDS011;5365;51.640;8.106;2022-12-18T13:38:16;8.93;;;6.27;;
10633;SDS011;5365;51.640;8.106;2022-12-18T13:41:04;9.03;;;7.00;;
10633;SDS011;5365;51.640;8.106;2022-12-18T13:46:04;10.60;;;7.07;;
10633;SDS011;5365;51.640;8.106;2022-12-18T13:48:26;12.13;;;7.53;;
10633;SDS011;5365;51.640;8.106;2022-12-18T13:51:03;10.57;;;6.67;;
10633;SDS011;5365;51.640;8.106;2022-12-18T13:53:29;12.43;;;7.20;;
10633;SDS011;5365;51.640;8.106;2022-12-18T13:55:54;10.87;;;6.93;;
10633;SDS011;5365;51.640;8.106;2022-12-18T13:58:16;12.47;;;7.50;;
10633;SDS011;5365;51.640;8.106;2022-12-18T14:00:41;12.43;;;7.57;;
10633;SDS011;5365;51.640;8.106;2022-12-18T14:03:15;11.30;;;7.67;;
10633;SDS011;5365;51.640;8.106;2022-12-18T14:05:43;11.77;;;7.50;;
10633;SDS011;5365;51.640;8.106;2022-12-18T14:08:08;14.37;;;8.33;;
10633;SDS011;5365;51.640;8.106;2022-12-18T14:10:33;12.30;;;8.20;;
10633;SDS011;5365;51.640;8.106;2022-12-18T14:13:03;10.80;;;8.07;;
10633;SDS011;5365;51.640;8.106;2022-12-18T14:15:34;9.70;;;7.37;;
10633;SDS011;5365;51.640;8.106;2022-12-18T14:17:59;10.67;;;7.43;;
10633;SDS011;5365;51.640;8.106;2022-12-18T14:20:24;10.63;;;7.33;;
10633;SDS011;5365;51.640;8.106;2022-12-18T14:22:47;12.77;;;7.10;;
10633;SDS011;5365;51.640;8.106;2022-12-18T14:25:14;13.13;;;7.43;;
10633;SDS011;5365;51.640;8.106;2022-12-18T14:27:37;10.57;;;7.03;;
10633;SDS011;5365;51.640;8.106;2022-12-18T14:29:59;14.73;;;7.73;;
10633;SDS011;5365;51.640;8.106;2022-12-18T14:32:21;9.00;;;6.60;;
10633;SDS011;5365;51.640;8.106;2022-12-18T14:34:52;11.37;;;6.70;;
10633;SDS011;5365;51.640;8.106;2022-12-18T14:37:25;8.83;;;6.43;;
10633;SDS011;5365;51.640;8.106;2022-12-18T14:39:52;10.50;;;7.57;;
10633;SDS011;5365;51.640;8.106;2022-12-18T14:42:21;13.90;;;8.17;;
10633;SDS011;5365;51.640;8.106;2022-12-18T14:44:43;11.53;;;7.90;;
10633;SDS011;5365;51.640;8.106;2022-12-18T14:47:25;12.07;;;7.67;;
10633;SDS011;5365;51.640;8.106;2022-12-18T14:49:47;10.13;;;7.10;;
10633;SDS011;5365;51.640;8.106;2022-12-18T14:52:18;12.10;;;7.57;;
10633;SDS011;5365;51.640;8.106;2022-12-18T14:54:45;10.57;;;7.10;;
10633;SDS011;5365;51.640;8.106;2022-12-18T14:59:45;8.63;;;6.40;;
10633;SDS011;5365;51.640;8.106;2022-12-18T15:02:18;7.57;;;6.20;;
10633;SDS011;5365;51.640;8.106;2022-12-18T15:04:42;7.80;;;5.97;;
10633;SDS011;5365;51.640;8.106;2022-12-18T15:07:16;11.50;;;6.47;;
10633;SDS011;5365;51.640;8.106;2022-12-18T15:10:01;9.37;;;6.93;;
10633;SDS011;5365;51.640;8.106;2022-12-18T15:12:25;11.13;;;7.83;;
10633;SDS011;5365;51.640;8.106;2022-12-18T15:14:59;11.40;;;7.40;;
10633;SDS011;5365;51.640;8.106;2022-12-18T15:17:23;10.10;;;7.00;;
10633;SDS011;5365;51.640;8.106;2022-12-18T15:19:46;9.57;;;6.67;;
10633;SDS011;5365;51.640;8.106;2022-12-18T15:22:22;11.03;;;7.43;;
10633;SDS011;5365;51.640;8.106;2022-12-18T15:24:48;10.63;;;7.40;;
10633;SDS011;5365;51.640;8.106;2022-12-18T15:27:30;9.03;;;7.03;;
10633;SDS011;5365;51.640;8.106;2022-12-18T15:32:29;9.33;;;7.00;;
10633;SDS011;5365;51.640;8.106;2022-12-18T15:34:51;12.47;;;9.13;;
10633;SDS011;5365;51.640;8.106;2022-12-18T15:37:32;11.17;;;7.40;;
10633;SDS011;5365;51.640;8.106;2022-12-18T15:39:53;12.17;;;7.93;;
10633;SDS011;5365;51.640;8.106;2022-12-18T15:42:15;8.80;;;6.83;;
10633;SDS011;5365;51.640;8.106;2022-12-18T15:44:56;10.77;;;6.63;;
10633;SDS011;5365;51.640;8.106;2022-12-18T15:47:17;10.47;;;7.67;;
10633;SDS011;5365;51.640;8.106;2022-12-18T15:49:39;10.97;;;8.50;;
10633;SDS011;5365;51.640;8.106;2022-12-18T15:52:01;11.07;;;7.53;;
10633;SDS011;5365;51.640;8.106;2022-12-18T15:54:23;10.00;;;7.37;;
10633;SDS011;5365;51.640;8.106;2022-12-18T15:57:03;13.40;;;8.57;;
10633;SDS011;5365;51.640;8.106;2022-12-18T15:59:44;11.00;;;7.77;;
10633;SDS011;5365;51.640;8.106;2022-12-18T16:02:08;10.43;;;7.90;;
10633;SDS011;5365;51.640;8.106;2022-12-18T16:04:34;9.70;;;7.67;;
10633;SDS011;5365;51.640;8.106;2022-12-18T16:06:56;12.30;;;8.33;;
10633;SDS011;5365;51.640;8.106;2022-12-18T16:09:34;12.03;;;8.23;;